Time;durP1;ratioP1;P1;durP2;ratioP2;P2;SDS_P1;SDS_P2;PMS_P1;PMS_P2;Temp;Humidity;BMP_temperature;BMP_pressure;BME280_temperature;BME280_humidity;BME280_pressure;Samples;Min_cycle;Max_cycle;Signal;HPM_P1;HPM_P2
2023/10/20 00:00:59;;;;;;;18.15;9.60;;;9.50;99.90;;;;;;5079006;28;20686;-33
2023/10/20 00:03:24;;;;;;;24.33;10.80;;;9.50;99.90;;;;;;5082387;28;20055;-33
2023/10/20 00:05:50;;;;;;;21.00;9.93;;;9.50;99.90;;;;;;5086844;28;20383;-33
2023/10/20 00:08:15;;;;;;;18.45;9.90;;;9.50;99.90;;;;;;5082316;28;20051;-34
2023/10/20 00:10:41;;;;;;;20.42;10.82;;;9.50;99.90;;;;;;5083585;28;20060;-33
2023/10/20 00:13:07;;;;;;;22.67;9.95;;;9.50;99.90;;;;;;5079413;28;20066;-33
2023/10/20 00:15:34;;;;;;;19.63;10.13;;;9.50;99.90;;;;;;5047900;28;20142;-33
2023/10/20 00:18:01;;;;;;;20.40;9.73;;;9.50;99.90;;;;;;5073319;28;20047;-33
2023/10/20 00:20:27;;;;;;;19.95;9.57;;;9.50;99.90;;;;;;5077254;28;20144;-34
2023/10/20 00:22:52;;;;;;;16.73;9.77;;;9.40;99.90;;;;;;5073217;28;20449;-34
2023/10/20 00:25:18;;;;;;;20.60;10.20;;;9.40;99.90;;;;;;5083174;28;20076;-34
2023/10/20 00:27:45;;;;;;;22.10;10.85;;;9.40;99.90;;;;;;5069616;28;20182;-34
2023/10/20 00:30:11;;;;;;;23.55;11.88;;;9.40;99.90;;;;;;5078865;28;20072;-34
2023/10/20 00:32:39;;;;;;;23.15;11.65;;;9.40;99.90;;;;;;5073572;28;20481;-33
2023/10/20 00:35:07;;;;;;;23.13;10.38;;;9.40;99.90;;;;;;5079173;28;20128;-34
2023/10/20 00:37:34;;;;;;;24.08;11.23;;;9.40;99.90;;;;;;5083591;28;20097;-34
2023/10/20 00:39:59;;;;;;;24.92;11.60;;;9.40;99.90;;;;;;5083257;28;20048;-34
2023/10/20 00:42:25;;;;;;;25.30;11.98;;;9.40;99.90;;;;;;5078456;28;20513;-33
2023/10/20 00:44:53;;;;;;;34.38;13.27;;;9.40;99.90;;;;;;5067703;28;20071;-34
2023/10/20 00:47:19;;;;;;;22.67;10.98;;;9.40;99.90;;;;;;5063596;28;20070;-34
2023/10/20 00:49:45;;;;;;;24.25;10.45;;;9.40;99.90;;;;;;5081313;28;20525;-34
2023/10/20 00:52:14;;;;;;;22.38;10.55;;;9.30;99.90;;;;;;5082778;28;20093;-34
2023/10/20 00:54:44;;;;;;;27.98;10.98;;;9.30;99.90;;;;;;5067515;28;20056;-35
2023/10/20 00:57:11;;;;;;;24.00;11.50;;;9.30;99.90;;;;;;5083184;28;20100;-34
2023/10/20 00:59:37;;;;;;;27.00;11.82;;;9.30;99.90;;;;;;5064310;28;20513;-34
2023/10/20 01:02:03;;;;;;;26.27;12.15;;;9.30;99.90;;;;;;5080325;28;20056;-34
2023/10/20 01:04:28;;;;;;;32.17;11.90;;;9.30;99.90;;;;;;5071174;28;20048;-33
2023/10/20 01:06:54;;;;;;;24.00;11.60;;;9.30;99.90;;;;;;5074380;28;20058;-34
2023/10/20 01:09:25;;;;;;;26.77;11.43;;;9.20;99.90;;;;;;5082454;28;20063;-34
2023/10/20 01:11:50;;;;;;;25.98;11.82;;;9.20;99.90;;;;;;5070263;28;20486;-34
2023/10/20 01:14:16;;;;;;;23.52;11.93;;;9.20;99.90;;;;;;5066575;28;20048;-34
2023/10/20 01:16:42;;;;;;;22.95;10.88;;;9.20;99.90;;;;;;5064192;28;20059;-34
2023/10/20 01:19:07;;;;;;;21.65;10.80;;;9.20;99.90;;;;;;5070561;28;20063;-34
2023/10/20 01:21:33;;;;;;;27.20;11.80;;;9.20;99.90;;;;;;5076212;28;20086;-34
2023/10/20 01:24:02;;;;;;;26.35;11.63;;;9.20;99.90;;;;;;5069926;28;20072;-38
2023/10/20 01:26:29;;;;;;;23.75;10.63;;;9.20;99.90;;;;;;5065361;28;20052;-34
2023/10/20 01:28:55;;;;;;;25.55;10.43;;;9.20;99.90;;;;;;5058095;28;20056;-33
2023/10/20 01:31:22;;;;;;;25.55;11.73;;;9.20;99.90;;;;;;5061988;28;20060;-34
2023/10/20 01:33:48;;;;;;;26.48;11.27;;;9.10;99.90;;;;;;5060559;28;20048;-34
2023/10/20 01:36:14;;;;;;;23.23;11.13;;;9.10;99.90;;;;;;5064251;28;20103;-34
2023/10/20 01:38:40;;;;;;;23.20;10.73;;;9.10;99.90;;;;;;5042162;28;20465;-34
2023/10/20 01:41:06;;;;;;;25.30;11.27;;;9.10;99.90;;;;;;5058682;28;20048;-34
2023/10/20 01:43:33;;;;;;;20.58;9.65;;;9.10;99.90;;;;;;5044942;28;20143;-33
2023/10/20 01:45:59;;;;;;;25.08;11.40;;;9.10;99.90;;;;;;5062067;28;20048;-34
2023/10/20 01:48:25;;;;;;;21.85;10.65;;;9.10;99.90;;;;;;5064695;28;20048;-34
2023/10/20 01:50:51;;;;;;;22.52;10.80;;;9.10;99.90;;;;;;5063546;28;20418;-33
2023/10/20 01:53:16;;;;;;;25.00;10.07;;;9.10;99.90;;;;;;5060489;28;20412;-34
2023/10/20 01:55:48;;;;;;;24.85;10.52;;;9.10;99.90;;;;;;5063248;28;20131;-33
2023/10/20 01:58:14;;;;;;;21.80;10.75;;;9.10;99.90;;;;;;5062374;28;20135;-35
2023/10/20 02:00:39;;;;;;;23.23;11.05;;;9.10;99.90;;;;;;5063471;28;20098;-34
2023/10/20 02:03:05;;;;;;;27.33;9.90;;;9.10;99.90;;;;;;5064116;28;20117;-34
2023/10/20 02:05:31;;;;;;;22.92;10.00;;;9.10;99.90;;;;;;5037502;28;20067;-34
2023/10/20 02:07:57;;;;;;;20.33;10.05;;;9.10;99.90;;;;;;5057553;28;20106;-34
2023/10/20 02:10:22;;;;;;;22.73;10.15;;;9.10;99.90;;;;;;5046118;28;20048;-34
2023/10/20 02:12:48;;;;;;;25.38;10.40;;;9.10;99.90;;;;;;5061832;28;20044;-34
2023/10/20 02:15:13;;;;;;;22.88;9.80;;;9.10;99.90;;;;;;5061607;28;20056;-34
2023/10/20 02:17:39;;;;;;;24.23;10.23;;;9.00;99.90;;;;;;5065713;28;20056;-34
2023/10/20 02:20:05;;;;;;;23.35;9.63;;;9.00;99.90;;;;;;5058866;28;20076;-34
2023/10/20 02:22:31;;;;;;;28.15;10.50;;;9.00;99.90;;;;;;5062988;28;20054;-33
2023/10/20 02:24:57;;;;;;;20.88;9.93;;;9.00;99.90;;;;;;5066295;28;20123;-34
2023/10/20 02:27:22;;;;;;;22.80;10.05;;;9.00;99.90;;;;;;5060055;28;20044;-34
2023/10/20 02:29:48;;;;;;;25.30;9.45;;;9.00;99.90;;;;;;5063693;28;20404;-34
2023/10/20 02:32:14;;;;;;;21.52;10.13;;;9.00;99.90;;;;;;5060839;28;20083;-34
2023/10/20 02:34:39;;;;;;;22.92;10.43;;;9.00;99.90;;;;;;5053178;28;20041;-34
2023/10/20 02:37:05;;;;;;;24.27;11.52;;;9.00;99.90;;;;;;5060735;28;20049;-34
2023/10/20 02:39:31;;;;;;;24.00;10.07;;;9.00;99.90;;;;;;5061701;28;20059;-34
2023/10/20 02:41:56;;;;;;;19.88;9.55;;;9.00;99.90;;;;;;5062756;28;20056;-34
2023/10/20 02:44:22;;;;;;;26.88;10.40;;;9.00;99.90;;;;;;5058289;28;20506;-34
2023/10/20 02:46:48;;;;;;;21.55;9.93;;;9.00;99.90;;;;;;5059145;28;20048;-34
2023/10/20 02:49:14;;;;;;;21.40;9.82;;;9.00;99.90;;;;;;5065819;28;20418;-35
2023/10/20 02:51:40;;;;;;;22.50;10.30;;;9.00;99.90;;;;;;5057562;28;20131;-34
2023/10/20 02:54:05;;;;;;;25.13;9.73;;;9.00;99.90;;;;;;5062930;28;20597;-34
2023/10/20 02:56:31;;;;;;;21.70;10.43;;;9.00;99.90;;;;;;5065041;28;20067;-34
2023/10/20 02:58:56;;;;;;;24.40;10.45;;;9.00;99.90;;;;;;5063286;28;20486;-34
2023/10/20 03:01:23;;;;;;;22.85;9.75;;;9.00;99.90;;;;;;5067695;28;20139;-34
2023/10/20 03:03:48;;;;;;;23.02;10.32;;;9.00;99.90;;;;;;5048306;28;20131;-34
2023/10/20 03:06:14;;;;;;;23.08;10.32;;;8.90;99.90;;;;;;5052226;28;20202;-34
2023/10/20 03:08:40;;;;;;;27.45;10.40;;;8.90;99.90;;;;;;5065395;28;20058;-34
2023/10/20 03:11:07;;;;;;;24.40;9.73;;;8.90;99.90;;;;;;5068772;28;20450;-34
2023/10/20 03:13:33;;;;;;;27.52;9.80;;;8.90;99.90;;;;;;5062182;28;20147;-34
2023/10/20 03:15:59;;;;;;;23.23;10.95;;;8.90;99.90;;;;;;5065146;28;20139;-34
2023/10/20 03:18:25;;;;;;;27.85;10.90;;;8.90;99.90;;;;;;5066825;28;20132;-34
2023/10/20 03:20:51;;;;;;;26.55;10.90;;;8.90;99.90;;;;;;5065560;28;20064;-34
2023/10/20 03:23:23;;;;;;;22.92;10.02;;;8.80;99.90;;;;;;5070087;28;20056;-34
2023/10/20 03:25:49;;;;;;;21.65;10.68;;;8.80;99.90;;;;;;5065849;28;20504;-34
2023/10/20 03:28:15;;;;;;;28.55;11.15;;;8.90;99.90;;;;;;5083127;28;20044;-34
2023/10/20 03:30:45;;;;;;;23.17;9.68;;;8.80;99.90;;;;;;5065027;28;20052;-34
2023/10/20 03:33:13;;;;;;;26.08;10.30;;;8.80;99.90;;;;;;5075806;28;20060;-34
2023/10/20 03:35:39;;;;;;;25.33;10.48;;;8.80;99.90;;;;;;5084549;28;20060;-34
2023/10/20 03:38:09;;;;;;;30.85;10.65;;;8.80;99.90;;;;;;5090431;28;20046;-34
2023/10/20 03:40:37;;;;;;;22.15;9.43;;;8.80;99.90;;;;;;5077982;28;20142;-34
2023/10/20 03:43:05;;;;;;;23.15;9.80;;;8.80;99.90;;;;;;5081865;28;20063;-34
2023/10/20 03:45:39;;;;;;;25.33;10.63;;;8.80;99.90;;;;;;5080903;28;20043;-34
2023/10/20 03:48:06;;;;;;;21.88;10.40;;;8.80;99.90;;;;;;5084971;28;20451;-34
2023/10/20 03:50:35;;;;;;;21.85;9.82;;;8.80;99.90;;;;;;5080900;28;20493;-34
2023/10/20 03:53:01;;;;;;;22.58;10.57;;;8.80;99.90;;;;;;5055231;28;20416;-34
2023/10/20 03:55:27;;;;;;;19.02;9.35;;;8.80;99.90;;;;;;5084086;28;20056;-34
2023/10/20 03:57:52;;;;;;;24.67;11.40;;;8.80;99.90;;;;;;5087508;28;20151;-34
2023/10/20 04:00:21;;;;;;;22.20;10.73;;;8.80;99.90;;;;;;5066653;28;20257;-34
2023/10/20 04:02:47;;;;;;;21.05;9.57;;;8.80;99.90;;;;;;5065771;28;20044;-34
2023/10/20 04:05:16;;;;;;;26.77;11.07;;;8.70;99.90;;;;;;5084046;28;20048;-34
2023/10/20 04:07:42;;;;;;;21.75;10.95;;;8.70;99.90;;;;;;5081108;28;20052;-34
2023/10/20 04:10:08;;;;;;;22.13;10.68;;;8.80;99.90;;;;;;5083954;28;20071;-34
2023/10/20 04:12:34;;;;;;;22.15;10.23;;;8.70;99.90;;;;;;5087324;28;20048;-34
2023/10/20 04:15:00;;;;;;;22.77;10.77;;;8.70;99.90;;;;;;5081825;28;20417;-34
2023/10/20 04:17:26;;;;;;;23.33;10.55;;;8.70;99.90;;;;;;5087066;28;20120;-34
2023/10/20 04:19:52;;;;;;;21.50;9.70;;;8.70;99.90;;;;;;5081933;28;20766;-34
2023/10/20 04:22:18;;;;;;;23.08;10.38;;;8.70;99.90;;;;;;5083327;28;20040;-34
2023/10/20 04:24:47;;;;;;;23.88;10.10;;;8.70;99.90;;;;;;5070697;28;20044;-34
2023/10/20 04:27:23;;;;;;;21.67;10.63;;;8.70;99.90;;;;;;5063142;28;20053;-34
2023/10/20 04:54:44;;;;;;;21.80;9.75;;;8.70;99.90;;;;;;5061247;28;20052;-34
2023/10/20 04:59:59;;;;;;;21.25;10.25;;;8.60;99.90;;;;;;5058100;28;20395;-42
2023/10/20 05:02:39;;;;;;;22.77;9.75;;;8.70;99.90;;;;;;5051981;28;20037;-36
2023/10/20 05:05:26;;;;;;;20.15;9.63;;;8.70;99.90;;;;;;5059228;28;20048;-35
2023/10/20 05:08:02;;;;;;;20.23;9.70;;;8.70;99.90;;;;;;5049962;28;20473;-35
2023/10/20 05:10:28;;;;;;;21.85;9.85;;;8.60;99.90;;;;;;5054595;28;20495;-34
2023/10/20 05:12:54;;;;;;;20.48;10.88;;;8.60;99.90;;;;;;5056112;28;20766;-34
2023/10/20 05:15:21;;;;;;;20.45;10.00;;;8.60;99.90;;;;;;5061915;28;20054;-34
2023/10/20 05:17:46;;;;;;;19.17;9.52;;;8.70;99.90;;;;;;5058471;28;20040;-35
2023/10/20 05:20:19;;;;;;;18.02;8.88;;;8.60;99.90;;;;;;5048103;28;20053;-35
2023/10/20 05:22:46;;;;;;;19.90;10.07;;;8.70;99.90;;;;;;5055110;28;20045;-34
2023/10/20 05:25:12;;;;;;;21.35;10.18;;;8.70;99.90;;;;;;5054522;28;20520;-35
2023/10/20 05:27:38;;;;;;;19.05;9.20;;;8.60;99.90;;;;;;5058282;28;20566;-34
2023/10/20 05:30:04;;;;;;;21.90;10.00;;;8.60;99.90;;;;;;5044255;28;20071;-34
2023/10/20 05:32:31;;;;;;;19.10;10.02;;;8.60;99.90;;;;;;5063433;28;20048;-35
2023/10/20 05:35:01;;;;;;;20.25;9.38;;;8.60;99.90;;;;;;5055984;28;20487;-35
2023/10/20 05:37:27;;;;;;;21.25;9.73;;;8.60;99.90;;;;;;5059093;28;20470;-35
2023/10/20 05:39:53;;;;;;;20.08;9.88;;;8.60;99.90;;;;;;5061312;28;20121;-34
2023/10/20 05:42:19;;;;;;;20.95;9.82;;;8.60;99.90;;;;;;5062639;28;20585;-34
2023/10/20 05:45:03;;;;;;;22.05;10.45;;;8.60;99.90;;;;;;5056067;28;20072;-34
2023/10/20 05:47:32;;;;;;;20.13;9.75;;;8.60;99.90;;;;;;5057895;28;20040;-34
2023/10/20 05:49:59;;;;;;;22.40;10.13;;;8.60;99.90;;;;;;5061501;28;20533;-34
2023/10/20 05:52:25;;;;;;;19.08;9.15;;;8.60;99.90;;;;;;5059888;28;20059;-34
2023/10/20 05:54:50;;;;;;;21.15;10.63;;;8.50;99.90;;;;;;5049444;28;20093;-34
2023/10/20 05:57:16;;;;;;;18.35;8.90;;;8.50;99.90;;;;;;5033369;28;20140;-36
2023/10/20 05:59:43;;;;;;;19.65;9.27;;;8.50;99.90;;;;;;5059705;28;20060;-34
2023/10/20 06:02:09;;;;;;;20.08;9.73;;;8.60;99.90;;;;;;5054079;28;20041;-34
2023/10/20 06:04:35;;;;;;;16.85;8.75;;;8.50;99.90;;;;;;5055423;28;20095;-35
2023/10/20 06:07:01;;;;;;;20.98;8.60;;;8.50;99.90;;;;;;5054183;28;20052;-35
2023/10/20 06:09:27;;;;;;;20.13;9.75;;;8.50;99.90;;;;;;5052596;28;20144;-35
2023/10/20 06:11:53;;;;;;;19.95;8.45;;;8.50;99.90;;;;;;5057211;28;20135;-35
2023/10/20 06:14:20;;;;;;;19.70;8.80;;;8.50;99.90;;;;;;5050332;28;20045;-42
2023/10/20 06:16:46;;;;;;;18.55;8.85;;;8.50;99.90;;;;;;5059033;28;20088;-35
2023/10/20 06:19:12;;;;;;;16.73;8.18;;;8.50;99.90;;;;;;5051849;28;20156;-35
2023/10/20 06:21:42;;;;;;;19.33;9.02;;;8.50;99.90;;;;;;5061002;28;20052;-35
2023/10/20 06:24:08;;;;;;;16.45;8.25;;;8.50;99.90;;;;;;5064600;28;20065;-34
2023/10/20 06:26:34;;;;;;;14.90;7.75;;;8.50;99.90;;;;;;5065170;28;20052;-35
2023/10/20 06:29:00;;;;;;;16.58;7.90;;;8.50;99.90;;;;;;5063252;28;20064;-35
2023/10/20 06:34:00;;;;;;;15.60;7.63;;;8.50;99.90;;;;;;5044414;28;20453;-38
2023/10/20 06:36:27;;;;;;;15.35;7.43;;;8.50;99.90;;;;;;5062212;28;20165;-35
2023/10/20 06:38:53;;;;;;;13.65;6.90;;;8.50;99.90;;;;;;5068720;28;20137;-35
2023/10/20 06:41:18;;;;;;;16.40;6.93;;;8.50;99.90;;;;;;5058981;28;20056;-35
2023/10/20 06:43:44;;;;;;;17.85;7.93;;;8.50;99.90;;;;;;5063298;28;20056;-35
2023/10/20 06:46:10;;;;;;;15.05;6.63;;;8.50;99.90;;;;;;5043975;28;20410;-35
2023/10/20 06:48:35;;;;;;;15.00;6.88;;;8.40;99.90;;;;;;5062728;28;20056;-35
2023/10/20 06:51:01;;;;;;;14.77;7.03;;;8.50;99.90;;;;;;5048408;28;20059;-34
2023/10/20 06:53:28;;;;;;;16.00;7.07;;;8.40;99.90;;;;;;5065752;28;20056;-35
2023/10/20 06:55:56;;;;;;;13.60;6.95;;;8.40;99.90;;;;;;5066377;28;20044;-35
2023/10/20 06:58:21;;;;;;;16.63;7.13;;;8.40;99.90;;;;;;5064806;28;20052;-35
2023/10/20 07:00:47;;;;;;;13.95;7.00;;;8.40;99.90;;;;;;5057631;28;20473;-35
2023/10/20 07:03:13;;;;;;;12.38;6.57;;;8.40;99.90;;;;;;5063298;28;20134;-35
2023/10/20 07:05:40;;;;;;;13.50;7.07;;;8.40;99.90;;;;;;5065980;28;20582;-34
2023/10/20 07:08:06;;;;;;;13.43;6.70;;;8.40;99.90;;;;;;5062866;28;20048;-35
2023/10/20 07:10:37;;;;;;;13.77;6.60;;;8.40;99.90;;;;;;5070223;28;20156;-43
2023/10/20 07:13:06;;;;;;;14.00;7.00;;;8.40;99.90;;;;;;5055287;28;20055;-33
2023/10/20 07:15:33;;;;;;;12.07;5.68;;;8.40;99.90;;;;;;5058990;28;20073;-34
2023/10/20 07:17:59;;;;;;;12.23;5.32;;;8.40;99.90;;;;;;5057690;28;20059;-33
2023/10/20 07:20:25;;;;;;;11.00;5.20;;;8.40;99.90;;;;;;5060877;28;20044;-34
2023/10/20 07:22:51;;;;;;;10.38;5.60;;;8.40;99.90;;;;;;5060902;28;20486;-34
2023/10/20 07:25:18;;;;;;;10.52;4.93;;;8.40;99.90;;;;;;5068455;28;20716;-34
2023/10/20 07:27:43;;;;;;;9.57;4.82;;;8.30;99.90;;;;;;5077066;28;20397;-36
2023/10/20 07:30:10;;;;;;;8.75;4.93;;;8.40;99.90;;;;;;5078009;28;20056;-33
2023/10/20 07:32:36;;;;;;;8.98;4.28;;;8.40;99.90;;;;;;5067497;28;20539;-35
2023/10/20 07:35:03;;;;;;;9.00;4.53;;;8.40;99.90;;;;;;5078428;28;20052;-34
2023/10/20 07:37:29;;;;;;;8.30;4.15;;;8.40;99.90;;;;;;5062315;28;20060;-34
2023/10/20 07:39:55;;;;;;;8.27;4.43;;;8.30;99.90;;;;;;5064377;28;20073;-35
2023/10/20 07:42:20;;;;;;;6.85;3.65;;;8.40;99.90;;;;;;5073983;28;20099;-35
2023/10/20 07:44:47;;;;;;;7.38;3.85;;;8.30;99.90;;;;;;5078425;28;20496;-35
2023/10/20 07:47:13;;;;;;;6.32;3.20;;;8.30;99.90;;;;;;5065137;28;20493;-35
2023/10/20 07:49:39;;;;;;;7.93;3.58;;;8.30;99.90;;;;;;5083601;28;20062;-35
2023/10/20 07:52:04;;;;;;;5.40;3.30;;;8.40;99.90;;;;;;5078118;28;20050;-36
2023/10/20 07:54:30;;;;;;;7.22;2.97;;;8.40;99.90;;;;;;5080301;28;20044;-35
2023/10/20 07:56:56;;;;;;;5.80;3.05;;;8.40;99.90;;;;;;5079501;28;20054;-42
2023/10/20 07:59:22;;;;;;;6.25;3.15;;;8.40;99.90;;;;;;5070875;28;20399;-35
2023/10/20 08:01:47;;;;;;;5.65;2.67;;;8.40;99.90;;;;;;5075142;28;20055;-35
2023/10/20 08:04:13;;;;;;;5.97;3.08;;;8.40;99.90;;;;;;5076026;28;20210;-39
2023/10/20 08:06:39;;;;;;;5.53;2.78;;;8.40;99.90;;;;;;5073408;28;20052;-35
2023/10/20 08:09:04;;;;;;;5.97;3.30;;;8.40;99.90;;;;;;5079911;28;20093;-34
2023/10/20 08:11:30;;;;;;;6.03;2.90;;;8.40;99.90;;;;;;5073867;28;20052;-35
2023/10/20 08:13:57;;;;;;;5.03;2.58;;;8.40;99.90;;;;;;5080014;28;20056;-35
2023/10/20 08:16:23;;;;;;;5.65;2.55;;;8.40;99.90;;;;;;5067702;28;20049;-35
2023/10/20 08:18:49;;;;;;;5.60;2.67;;;8.40;99.90;;;;;;5067797;28;20063;-35
2023/10/20 08:21:16;;;;;;;3.85;2.33;;;8.40;99.90;;;;;;5077742;28;20052;-35
2023/10/20 08:23:42;;;;;;;5.47;2.30;;;8.40;99.90;;;;;;5062413;28;20109;-35
2023/10/20 08:26:15;;;;;;;5.28;2.22;;;8.40;99.90;;;;;;5061871;28;20056;-34
2023/10/20 08:28:41;;;;;;;4.20;2.42;;;8.40;99.90;;;;;;5057065;28;20045;-35
2023/10/20 08:31:09;;;;;;;3.88;2.20;;;8.40;99.90;;;;;;5061468;28;20117;-35
2023/10/20 08:33:35;;;;;;;4.78;2.15;;;8.40;99.90;;;;;;5060265;28;20525;-35
2023/10/20 08:36:14;;;;;;;3.63;2.00;;;8.40;99.90;;;;;;5062486;28;20052;-35
2023/10/20 08:38:43;;;;;;;4.38;2.05;;;8.40;99.90;;;;;;5038847;28;20072;-35
2023/10/20 08:41:16;;;;;;;5.25;2.35;;;8.40;99.90;;;;;;5057971;28;20100;-33
2023/10/20 08:43:43;;;;;;;4.72;2.03;;;8.40;99.90;;;;;;5059032;28;20048;-35
2023/10/20 08:46:11;;;;;;;4.07;1.92;;;8.40;99.90;;;;;;5056545;28;20075;-34
2023/10/20 08:48:40;;;;;;;3.92;2.05;;;8.40;99.90;;;;;;5057632;28;20044;-37
2023/10/20 08:51:08;;;;;;;3.33;1.80;;;8.40;99.90;;;;;;5042877;28;20502;-35
2023/10/20 08:53:36;;;;;;;3.55;1.80;;;8.40;99.90;;;;;;5047860;28;20057;-35
2023/10/20 08:56:03;;;;;;;4.20;1.65;;;8.40;99.90;;;;;;5053795;28;20801;-35
2023/10/20 08:58:30;;;;;;;2.50;1.40;;;8.40;99.90;;;;;;5054488;28;20052;-34
2023/10/20 09:00:57;;;;;;;3.35;1.63;;;8.40;99.90;;;;;;5055188;28;20052;-35
2023/10/20 09:03:25;;;;;;;2.95;1.63;;;8.40;99.90;;;;;;5058899;28;20131;-34
2023/10/20 09:05:52;;;;;;;2.22;1.15;;;8.40;99.90;;;;;;5054208;28;20135;-35
2023/10/20 09:08:18;;;;;;;2.20;1.08;;;8.40;99.90;;;;;;5060214;28;20486;-34
2023/10/20 09:10:45;;;;;;;2.17;1.08;;;8.40;99.90;;;;;;5059110;28;20133;-35
2023/10/20 09:13:11;;;;;;;2.33;0.98;;;8.40;99.90;;;;;;5034506;28;20316;-35
2023/10/20 09:15:37;;;;;;;3.22;1.20;;;8.40;99.90;;;;;;5057600;28;20057;-35
2023/10/20 09:18:08;;;;;;;2.35;1.20;;;8.40;99.90;;;;;;5058109;28;20056;-37
2023/10/20 09:20:34;;;;;;;3.42;1.23;;;8.40;99.90;;;;;;5053574;28;20349;-34
2023/10/20 09:23:00;;;;;;;3.15;1.13;;;8.40;99.90;;;;;;5055701;28;20041;-35
2023/10/20 09:25:26;;;;;;;2.67;1.00;;;8.40;99.90;;;;;;5058839;28;20490;-34
2023/10/20 09:27:52;;;;;;;3.92;1.23;;;8.40;99.90;;;;;;5059637;28;20102;-36
2023/10/20 09:30:18;;;;;;;1.80;0.90;;;8.40;99.90;;;;;;5053856;28;20402;-34
2023/10/20 09:32:44;;;;;;;1.75;0.82;;;8.40;99.90;;;;;;5030050;28;20105;-33
2023/10/20 09:35:10;;;;;;;2.17;0.90;;;8.40;99.90;;;;;;5033912;28;20558;-34
2023/10/20 09:37:36;;;;;;;1.67;0.90;;;8.50;99.90;;;;;;5014943;28;20135;-35
2023/10/20 09:40:08;;;;;;;1.73;0.90;;;8.40;99.90;;;;;;5057473;28;20521;-34
2023/10/20 09:42:57;;;;;;;2.47;0.90;;;8.40;99.90;;;;;;5054256;28;20053;-35
2023/10/20 09:45:32;;;;;;;2.10;0.80;;;8.40;99.90;;;;;;5055662;28;20048;-35
2023/10/20 09:48:04;;;;;;;1.85;0.88;;;8.40;99.90;;;;;;5051112;28;20157;-34
2023/10/20 09:50:31;;;;;;;1.85;0.70;;;8.50;99.90;;;;;;5046932;28;20115;-34
2023/10/20 09:52:59;;;;;;;1.65;0.80;;;8.40;99.90;;;;;;5051125;28;20493;-33
2023/10/20 09:55:25;;;;;;;0.88;0.57;;;8.50;99.90;;;;;;5034716;28;20510;-35
2023/10/20 09:57:52;;;;;;;0.98;0.50;;;8.40;99.90;;;;;;5056423;28;20095;-33
2023/10/20 10:00:30;;;;;;;1.50;0.63;;;8.40;99.90;;;;;;5038366;28;20118;-35
2023/10/20 10:02:58;;;;;;;0.68;0.50;;;8.40;99.90;;;;;;5040249;28;20055;-34
2023/10/20 10:05:24;;;;;;;1.77;0.90;;;8.40;99.90;;;;;;5053693;28;20052;-33
2023/10/20 10:08:05;;;;;;;1.20;0.60;;;8.40;99.90;;;;;;5020237;28;20056;-33
2023/10/20 10:10:33;;;;;;;1.05;0.50;;;8.40;99.90;;;;;;5019305;28;20052;-34
2023/10/20 10:13:05;;;;;;;1.80;0.70;;;8.40;99.90;;;;;;5037429;28;20127;-34
2023/10/20 10:15:38;;;;;;;1.33;0.60;;;8.40;99.90;;;;;;5052352;28;20603;-34
2023/10/20 10:18:11;;;;;;;1.10;0.50;;;8.40;99.90;;;;;;5051825;28;20057;-34
2023/10/20 10:20:43;;;;;;;1.80;0.57;;;8.40;99.90;;;;;;5052587;28;20059;-34
2023/10/20 10:23:14;;;;;;;2.33;0.40;;;8.40;99.90;;;;;;5053135;28;20393;-34
2023/10/20 10:25:47;;;;;;;0.95;0.45;;;8.40;99.90;;;;;;5051737;28;20174;-36
2023/10/20 10:28:17;;;;;;;2.25;0.73;;;8.40;99.90;;;;;;5052820;28;20056;-34
2023/10/20 10:30:47;;;;;;;0.77;0.50;;;8.30;99.90;;;;;;5052231;28;20053;-35
2023/10/20 10:33:18;;;;;;;0.95;0.50;;;8.40;99.90;;;;;;5051300;28;20041;-34
2023/10/20 10:35:44;;;;;;;1.23;0.40;;;8.40;99.90;;;;;;5053316;28;20048;-35
2023/10/20 10:38:23;;;;;;;1.10;0.50;;;8.40;99.90;;;;;;5053813;28;20384;-34
2023/10/20 10:40:52;;;;;;;1.13;0.60;;;8.40;99.90;;;;;;5049876;28;20055;-34
2023/10/20 10:43:22;;;;;;;1.05;0.50;;;8.40;99.90;;;;;;5050812;28;20048;-34
2023/10/20 10:45:52;;;;;;;1.08;0.50;;;8.40;99.90;;;;;;5019891;28;20047;-34
2023/10/20 10:48:18;;;;;;;0.68;0.40;;;8.40;99.90;;;;;;5050292;28;20127;-35
2023/10/20 10:50:46;;;;;;;0.70;0.50;;;8.40;99.90;;;;;;5059254;28;20054;-34
2023/10/20 10:53:12;;;;;;;0.50;0.30;;;8.40;99.90;;;;;;5062177;28;20060;-34
2023/10/20 10:55:40;;;;;;;1.42;0.45;;;8.40;99.90;;;;;;5056507;28;20059;-34
2023/10/20 10:58:09;;;;;;;0.60;0.30;;;8.40;99.90;;;;;;5056395;28;20040;-37
2023/10/20 11:00:36;;;;;;;2.17;0.30;;;8.30;99.90;;;;;;5058540;28;20301;-34
2023/10/20 11:03:03;;;;;;;2.15;0.30;;;8.30;99.90;;;;;;5055630;28;20052;-34
2023/10/20 11:05:29;;;;;;;0.75;0.30;;;8.40;99.90;;;;;;5059237;28;20048;-34
2023/10/20 11:07:59;;;;;;;1.40;0.40;;;8.40;99.90;;;;;;5037741;28;20068;-34
2023/10/20 11:10:28;;;;;;;0.65;0.32;;;8.30;99.90;;;;;;5057258;28;20510;-34
2023/10/20 11:12:58;;;;;;;0.88;0.28;;;8.30;99.90;;;;;;5057002;28;20156;-34
2023/10/20 11:15:30;;;;;;;2.20;0.30;;;8.30;99.90;;;;;;5059364;28;20055;-34
2023/10/20 11:17:58;;;;;;;2.28;0.40;;;8.30;99.90;;;;;;5057252;28;20737;-35
2023/10/20 11:20:25;;;;;;;0.50;0.20;;;8.30;99.90;;;;;;5058205;28;20609;-34
2023/10/20 11:22:54;;;;;;;0.95;0.30;;;8.30;99.90;;;;;;5063187;28;20045;-34
2023/10/20 11:25:21;;;;;;;1.50;0.40;;;8.30;99.90;;;;;;5059524;28;20111;-34
2023/10/20 11:27:54;;;;;;;0.50;0.20;;;8.30;99.90;;;;;;5049109;28;20048;-34
2023/10/20 11:30:38;;;;;;;1.15;0.20;;;8.30;99.90;;;;;;5062378;28;20496;-34
2023/10/20 11:33:04;;;;;;;0.47;0.22;;;8.30;99.90;;;;;;5061495;28;20386;-34
2023/10/20 11:35:30;;;;;;;0.55;0.20;;;8.30;99.90;;;;;;5063095;28;20049;-34
2023/10/20 11:37:57;;;;;;;0.50;0.17;;;8.30;99.90;;;;;;5062485;28;20060;-34
2023/10/20 11:40:26;;;;;;;3.13;0.20;;;8.40;99.90;;;;;;5066605;28;20155;-34
2023/10/20 11:42:52;;;;;;;0.40;0.10;;;8.40;99.90;;;;;;5055000;28;20139;-34
2023/10/20 11:45:18;;;;;;;0.70;0.20;;;8.40;99.90;;;;;;5060032;28;20040;-34
2023/10/20 11:47:45;;;;;;;0.30;0.10;;;8.30;99.90;;;;;;5066411;28;20059;-34
2023/10/20 11:50:10;;;;;;;1.98;0.15;;;8.30;99.90;;;;;;5063301;28;20049;-34
2023/10/20 11:52:40;;;;;;;0.75;0.10;;;8.30;99.90;;;;;;5044899;28;20045;-34
2023/10/20 11:55:10;;;;;;;0.57;0.10;;;8.30;99.90;;;;;;5060200;28;20100;-34
2023/10/20 11:57:37;;;;;;;1.48;0.17;;;8.20;99.90;;;;;;5062194;28;20056;-34
2023/10/20 12:00:07;;;;;;;2.20;0.32;;;8.20;99.90;;;;;;5059515;28;20040;-34
2023/10/20 12:02:34;;;;;;;0.40;0.20;;;8.20;99.90;;;;;;5055015;28;21292;-34
2023/10/20 12:05:00;;;;;;;1.77;0.10;;;8.20;99.90;;;;;;5057458;28;20048;-35
2023/10/20 12:07:26;;;;;;;0.08;0.00;;;8.20;99.90;;;;;;5062511;28;20497;-35
2023/10/20 12:09:53;;;;;;;0.20;0.10;;;8.20;99.90;;;;;;5064841;28;20047;-35
2023/10/20 12:12:22;;;;;;;1.40;0.13;;;8.20;99.90;;;;;;5063517;28;20102;-35
2023/10/20 12:14:48;;;;;;;0.40;0.10;;;8.30;99.90;;;;;;5059499;28;20639;-35
2023/10/20 12:17:14;;;;;;;1.55;0.10;;;8.30;99.90;;;;;;5063194;28;20063;-34
2023/10/20 12:19:41;;;;;;;0.43;0.10;;;8.30;99.90;;;;;;5063232;28;20056;-34
2023/10/20 12:22:08;;;;;;;0.30;0.10;;;8.30;99.90;;;;;;5061236;28;20056;-35
2023/10/20 12:24:37;;;;;;;0.22;0.10;;;8.30;99.90;;;;;;5071888;28;20063;-35
2023/10/20 12:27:03;;;;;;;0.52;0.10;;;8.30;99.90;;;;;;5082532;28;20055;-35
2023/10/20 12:29:30;;;;;;;0.93;0.13;;;8.30;99.90;;;;;;5077709;28;20115;-34
2023/10/20 12:31:58;;;;;;;0.47;0.10;;;8.30;99.90;;;;;;5065901;28;20083;-34
2023/10/20 12:34:24;;;;;;;0.30;0.10;;;8.30;99.90;;;;;;5076498;28;20052;-35
2023/10/20 12:36:50;;;;;;;0.47;0.10;;;8.30;99.90;;;;;;5080934;28;20401;-35
2023/10/20 12:39:20;;;;;;;0.30;0.10;;;8.30;99.90;;;;;;5081518;28;20135;-34
2023/10/20 12:41:46;;;;;;;1.15;0.10;;;8.30;99.90;;;;;;5062511;28;20060;-34
2023/10/20 12:44:13;;;;;;;0.22;0.08;;;8.30;99.90;;;;;;5075433;28;20062;-35
2023/10/20 12:46:40;;;;;;;0.10;0.10;;;8.30;99.90;;;;;;5079677;28;20056;-34
2023/10/20 12:49:06;;;;;;;0.40;0.10;;;8.30;99.90;;;;;;5078495;28;20053;-34
2023/10/20 12:51:33;;;;;;;1.15;0.10;;;8.30;99.90;;;;;;5083182;28;20422;-35
2023/10/20 12:54:01;;;;;;;0.08;0.00;;;8.30;99.90;;;;;;5085074;28;20054;-32
2023/10/20 12:56:27;;;;;;;0.73;0.10;;;8.20;99.90;;;;;;5065697;28;20056;-34
2023/10/20 12:58:53;;;;;;;0.28;0.10;;;8.20;99.90;;;;;;5083410;28;20546;-34
2023/10/20 13:01:20;;;;;;;0.10;0.00;;;8.20;99.90;;;;;;5060844;28;20505;-34
2023/10/20 13:03:48;;;;;;;0.10;0.10;;;8.20;99.90;;;;;;5079360;28;20124;-34
2023/10/20 13:06:15;;;;;;;0.08;0.00;;;8.20;99.90;;;;;;5055049;28;20060;-34
2023/10/20 13:08:43;;;;;;;1.08;0.30;;;8.20;99.90;;;;;;5076830;28;20129;-34
2023/10/20 13:11:10;;;;;;;0.68;0.10;;;8.20;99.90;;;;;;5078648;28;20135;-35
2023/10/20 13:13:36;;;;;;;0.45;0.20;;;8.10;99.90;;;;;;5081753;28;20048;-34
2023/10/20 13:16:06;;;;;;;0.10;0.00;;;8.10;99.90;;;;;;5060934;28;20547;-34
2023/10/20 13:18:32;;;;;;;0.20;0.10;;;8.10;99.90;;;;;;5078506;28;20589;-34